<?xml version='1.0' encoding='UTF-8'?>
<gpx xmlns="http://www.topografix.com/GPX/1/1" creator="www.balnam.be" version="1.1" xmlns:xsi="http://www.w3.org/2001/XMLSchema-instance" xsi:schemaLocation="http://www.topografix.com/GPX/1/1 http://www.topografix.com/GPX/1/1/gpx.xsd">
<trk>
<name>nvssg8</name>
<cmt>v</cmt>
<desc>Sugny Chemin n°8 </desc>
<link href="https://chemins.be/sugny/chemin/8"/><trkseg>
<trkpt lat="49.812341" lon="4.905579"><time>2026-05-02T22:38:19Z</time></trkpt>
<trkpt lat="49.812223" lon="4.907842"><time>2026-05-02T22:48:19Z</time></trkpt>
<trkpt lat="49.811157" lon="4.908803"><time>2026-05-02T22:58:19Z</time></trkpt>
<trkpt lat="49.810332" lon="4.910253"><time>2026-05-02T23:08:19Z</time></trkpt>
<trkpt lat="49.810335" lon="4.911503"><time>2026-05-02T23:18:19Z</time></trkpt>
<trkpt lat="49.810568" lon="4.913604"><time>2026-05-02T23:28:19Z</time></trkpt>
<trkpt lat="49.811420" lon="4.915878"><time>2026-05-02T23:38:19Z</time></trkpt>
<trkpt lat="49.811978" lon="4.917635"><time>2026-05-02T23:48:19Z</time></trkpt>
<trkpt lat="49.812339" lon="4.919223"><time>2026-05-02T23:58:19Z</time></trkpt>
<trkpt lat="49.813026" lon="4.920426"><time>2026-05-03T00:08:19Z</time></trkpt>
<trkpt lat="49.813011" lon="4.921732"><time>2026-05-03T00:18:19Z</time></trkpt>
<trkpt lat="49.812609" lon="4.923033"><time>2026-05-03T00:28:19Z</time></trkpt>
<trkpt lat="49.812390" lon="4.923586"><time>2026-05-03T00:38:19Z</time></trkpt>
<trkpt lat="49.812412" lon="4.924656"><time>2026-05-03T00:48:19Z</time></trkpt>
<trkpt lat="49.812110" lon="4.925737"><time>2026-05-03T00:58:19Z</time></trkpt>
<trkpt lat="49.811504" lon="4.926563"><time>2026-05-03T01:08:19Z</time></trkpt>
<trkpt lat="49.810999" lon="4.928753"><time>2026-05-03T01:18:19Z</time></trkpt>
<trkpt lat="49.810002" lon="4.930297"><time>2026-05-03T01:28:19Z</time></trkpt>
<trkpt lat="49.808764" lon="4.935270"><time>2026-05-03T01:38:19Z</time></trkpt>
<trkpt lat="49.808016" lon="4.937303"><time>2026-05-03T01:48:19Z</time></trkpt>
<trkpt lat="49.807192" lon="4.938641"><time>2026-05-03T01:58:19Z</time></trkpt>
<trkpt lat="49.806313" lon="4.941784"><time>2026-05-03T02:08:19Z</time></trkpt>
<trkpt lat="49.806396" lon="4.943063"><time>2026-05-03T02:18:19Z</time></trkpt>
<trkpt lat="49.805868" lon="4.946728"><time>2026-05-03T02:28:19Z</time></trkpt>
<trkpt lat="49.805951" lon="4.948702"><time>2026-05-03T02:38:19Z</time></trkpt>
<trkpt lat="49.806573" lon="4.950762"><time>2026-05-03T02:48:19Z</time></trkpt>
<trkpt lat="49.806558" lon="4.953493"><time>2026-05-03T02:58:19Z</time></trkpt>
<trkpt lat="49.806953" lon="4.957352"><time>2026-05-03T03:08:19Z</time></trkpt>
<trkpt lat="49.806621" lon="4.960807"><time>2026-05-03T03:18:19Z</time></trkpt>
</trkseg>
</trk>
</gpx>